sensor_id;sensor_type;location;lat;lon;timestamp;pressure;altitude;pressure_sealevel;temperature;humidity
44675;BME280;30388;52.038;-1.478;2023-04-06T00:00:02;65659.92;;;9.26;100.00
44675;BME280;30388;52.038;-1.478;2023-04-06T00:02:29;65703.17;;;9.81;100.00
44675;BME280;30388;52.038;-1.478;2023-04-06T00:04:56;65671.88;;;9.19;100.00
44675;BME280;30388;52.038;-1.478;2023-04-06T00:07:23;65679.89;;;9.51;100.00
44675;BME280;30388;52.038;-1.478;2023-04-06T00:09:51;65718.63;;;9.78;100.00
44675;BME280;30388;52.038;-1.478;2023-04-06T00:12:18;65648.23;;;9.12;100.00
44675;BME280;30388;52.038;-1.478;2023-04-06T00:14:45;65719.69;;;9.80;100.00
44675;BME280;30388;52.038;-1.478;2023-04-06T00:17:12;65714.36;;;9.72;100.00
44675;BME280;30388;52.038;-1.478;2023-04-06T00:19:39;65658.42;;;9.25;100.00
44675;BME280;30388;52.038;-1.478;2023-04-06T00:22:06;65649.26;;;9.13;100.00
44675;BME280;30388;52.038;-1.478;2023-04-06T00:24:33;65653.65;;;9.19;100.00
44675;BME280;30388;52.038;-1.478;2023-04-06T00:27:01;65656.37;;;9.00;100.00
44675;BME280;30388;52.038;-1.478;2023-04-06T00:29:28;65701.84;;;9.57;100.00
44675;BME280;30388;52.038;-1.478;2023-04-06T00:31:55;65672.85;;;9.20;100.00
44675;BME280;30388;52.038;-1.478;2023-04-06T00:34:22;65649.09;;;9.12;100.00
44675;BME280;30388;52.038;-1.478;2023-04-06T00:36:49;65693.83;;;9.47;100.00
44675;BME280;30388;52.038;-1.478;2023-04-06T00:39:16;65616.64;;;8.94;100.00
44675;BME280;30388;52.038;-1.478;2023-04-06T00:41:48;65643.53;;;9.28;100.00
44675;BME280;30388;52.038;-1.478;2023-04-06T00:44:16;65624.58;;;9.03;100.00
44675;BME280;30388;52.038;-1.478;2023-04-06T00:46:43;65682.80;;;9.78;100.00
44675;BME280;30388;52.038;-1.478;2023-04-06T00:49:10;65665.25;;;9.33;100.00
44675;BME280;30388;52.038;-1.478;2023-04-06T00:51:37;65650.97;;;9.15;100.00
44675;BME280;30388;52.038;-1.478;2023-04-06T00:54:04;65664.15;;;9.09;100.00
44675;BME280;30388;52.038;-1.478;2023-04-06T00:56:32;65594.33;;;8.66;100.00
44675;BME280;30388;52.038;-1.478;2023-04-06T00:58:59;65707.35;;;9.64;100.00
44675;BME280;30388;52.038;-1.478;2023-04-06T01:01:26;65669.68;;;9.38;100.00
44675;BME280;30388;52.038;-1.478;2023-04-06T01:03:53;65712.90;;;10.15;100.00
44675;BME280;30388;52.038;-1.478;2023-04-06T01:06:20;65683.99;;;9.79;100.00
44675;BME280;30388;52.038;-1.478;2023-04-06T01:08:47;65714.74;;;9.73;100.00
44675;BME280;30388;52.038;-1.478;2023-04-06T01:11:14;65697.03;;;9.51;100.00
44675;BME280;30388;52.038;-1.478;2023-04-06T01:13:41;65753.00;;;10.21;100.00
44675;BME280;30388;52.038;-1.478;2023-04-06T01:16:09;65708.09;;;9.38;100.00
44675;BME280;30388;52.038;-1.478;2023-04-06T01:18:37;65675.26;;;9.45;100.00
44675;BME280;30388;52.038;-1.478;2023-04-06T01:21:05;65687.15;;;9.38;100.00
44675;BME280;30388;52.038;-1.478;2023-04-06T01:23:32;65736.79;;;10.01;100.00
44675;BME280;30388;52.038;-1.478;2023-04-06T01:25:59;65631.48;;;8.90;100.00
44675;BME280;30388;52.038;-1.478;2023-04-06T01:28:26;65640.58;;;9.24;100.00
44675;BME280;30388;52.038;-1.478;2023-04-06T01:30:53;65730.48;;;9.93;100.00
44675;BME280;30388;52.038;-1.478;2023-04-06T01:33:20;65691.83;;;9.44;100.00
44675;BME280;30388;52.038;-1.478;2023-04-06T01:35:47;65703.70;;;9.59;100.00
44675;BME280;30388;52.038;-1.478;2023-04-06T01:38:15;65668.16;;;9.37;100.00
44675;BME280;30388;52.038;-1.478;2023-04-06T01:40:42;65624.57;;;8.81;100.00
44675;BME280;30388;52.038;-1.478;2023-04-06T01:43:09;65696.42;;;9.94;100.00
44675;BME280;30388;52.038;-1.478;2023-04-06T01:45:37;65701.37;;;9.79;100.00
44675;BME280;30388;52.038;-1.478;2023-04-06T01:48:04;65643.93;;;9.28;100.00
44675;BME280;30388;52.038;-1.478;2023-04-06T01:50:32;65751.69;;;10.20;100.00
44675;BME280;30388;52.038;-1.478;2023-04-06T01:52:59;65714.82;;;9.74;100.00
44675;BME280;30388;52.038;-1.478;2023-04-06T01:55:26;65811.88;;;10.96;100.00
44675;BME280;30388;52.038;-1.478;2023-04-06T01:57:53;65817.20;;;10.54;100.00
44675;BME280;30388;52.038;-1.478;2023-04-06T02:00:20;65813.58;;;10.72;100.00
44675;BME280;30388;52.038;-1.478;2023-04-06T02:02:48;65861.92;;;11.11;100.00
44675;BME280;30388;52.038;-1.478;2023-04-06T02:05:15;65882.44;;;11.36;100.00
44675;BME280;30388;52.038;-1.478;2023-04-06T02:07:42;65932.03;;;11.72;100.00
44675;BME280;30388;52.038;-1.478;2023-04-06T02:10:12;65899.09;;;11.30;100.00
44675;BME280;30388;52.038;-1.478;2023-04-06T02:12:39;65896.57;;;11.28;100.00
44675;BME280;30388;52.038;-1.478;2023-04-06T02:15:07;65872.93;;;10.98;100.00
44675;BME280;30388;52.038;-1.478;2023-04-06T02:17:34;65863.51;;;10.86;100.00
44675;BME280;30388;52.038;-1.478;2023-04-06T02:20:02;65923.80;;;11.63;100.00
44675;BME280;30388;52.038;-1.478;2023-04-06T02:22:29;65927.10;;;11.66;100.00
44675;BME280;30388;52.038;-1.478;2023-04-06T02:24:56;65842.77;;;10.59;100.00
44675;BME280;30388;52.038;-1.478;2023-04-06T02:27:23;65921.20;;;11.59;100.00
44675;BME280;30388;52.038;-1.478;2023-04-06T02:29:50;65925.57;;;11.64;100.00
44675;BME280;30388;52.038;-1.478;2023-04-06T02:32:17;65877.61;;;11.04;100.00
44675;BME280;30388;52.038;-1.478;2023-04-06T02:34:44;65879.40;;;11.32;100.00
44675;BME280;30388;52.038;-1.478;2023-04-06T02:37:11;65884.56;;;11.13;100.00
44675;BME280;30388;52.038;-1.478;2023-04-06T02:39:38;65840.70;;;10.84;100.00
44675;BME280;30388;52.038;-1.478;2023-04-06T02:42:05;65834.37;;;10.49;100.00
44675;BME280;30388;52.038;-1.478;2023-04-06T02:44:33;65784.19;;;10.62;100.00
44675;BME280;30388;52.038;-1.478;2023-04-06T02:47:00;65773.75;;;9.99;100.00
44675;BME280;30388;52.038;-1.478;2023-04-06T02:49:28;65777.64;;;10.04;100.00
44675;BME280;30388;52.038;-1.478;2023-04-06T02:51:55;65841.76;;;10.85;100.00
44675;BME280;30388;52.038;-1.478;2023-04-06T02:54:22;65779.40;;;10.55;100.00
44675;BME280;30388;52.038;-1.478;2023-04-06T02:56:49;65817.51;;;10.54;100.00
44675;BME280;30388;52.038;-1.478;2023-04-06T02:59:16;65844.56;;;11.10;100.00
44675;BME280;30388;52.038;-1.478;2023-04-06T03:01:43;65838.89;;;10.81;100.00
44675;BME280;30388;52.038;-1.478;2023-04-06T03:04:10;65732.88;;;9.69;100.00
44675;BME280;30388;52.038;-1.478;2023-04-06T03:06:37;65720.61;;;9.80;100.00
44675;BME280;30388;52.038;-1.478;2023-04-06T03:09:05;65758.77;;;10.29;100.00
44675;BME280;30388;52.038;-1.478;2023-04-06T03:11:33;65798.08;;;10.52;100.00
44675;BME280;30388;52.038;-1.478;2023-04-06T03:14:00;65871.92;;;10.96;100.00
44675;BME280;30388;52.038;-1.478;2023-04-06T03:16:28;65900.28;;;11.58;100.00
44675;BME280;30388;52.038;-1.478;2023-04-06T03:18:55;65933.82;;;11.74;100.00
44675;BME280;30388;52.038;-1.478;2023-04-06T03:21:22;65960.23;;;12.07;100.00
44675;BME280;30388;52.038;-1.478;2023-04-06T03:23:49;65916.57;;;11.78;100.00
44675;BME280;30388;52.038;-1.478;2023-04-06T03:26:17;65953.53;;;11.77;100.00
44675;BME280;30388;52.038;-1.478;2023-04-06T03:28:44;65960.13;;;11.63;100.00
44675;BME280;30388;52.038;-1.478;2023-04-06T03:31:11;65973.91;;;12.03;100.00
44675;BME280;30388;52.038;-1.478;2023-04-06T03:33:38;65978.47;;;11.87;100.00
44675;BME280;30388;52.038;-1.478;2023-04-06T03:36:06;65942.77;;;11.86;100.00
44675;BME280;30388;52.038;-1.478;2023-04-06T03:38:33;65778.63;;;10.05;100.00
44675;BME280;30388;52.038;-1.478;2023-04-06T03:41:00;65915.92;;;11.30;100.00
44675;BME280;30388;52.038;-1.478;2023-04-06T03:43:27;65900.74;;;11.33;100.00
44675;BME280;30388;52.038;-1.478;2023-04-06T03:45:54;65915.68;;;11.51;100.00
44675;BME280;30388;52.038;-1.478;2023-04-06T03:48:21;65850.92;;;10.96;100.00
44675;BME280;30388;52.038;-1.478;2023-04-06T03:50:48;65837.96;;;10.79;100.00
44675;BME280;30388;52.038;-1.478;2023-04-06T03:53:15;65739.67;;;10.04;100.00
44675;BME280;30388;52.038;-1.478;2023-04-06T03:55:43;65764.82;;;10.36;100.00
44675;BME280;30388;52.038;-1.478;2023-04-06T03:58:10;65736.47;;;10.00;100.00
44675;BME280;30388;52.038;-1.478;2023-04-06T04:00:37;65764.72;;;10.36;100.00
44675;BME280;30388;52.038;-1.478;2023-04-06T04:03:04;65745.89;;;9.63;100.00
44675;BME280;30388;52.038;-1.478;2023-04-06T04:05:31;65852.40;;;10.98;100.00
44675;BME280;30388;52.038;-1.478;2023-04-06T04:07:58;65873.16;;;10.97;100.00
44675;BME280;30388;52.038;-1.478;2023-04-06T04:10:25;65911.07;;;11.45;100.00
44675;BME280;30388;52.038;-1.478;2023-04-06T04:12:52;65892.90;;;11.22;100.00
44675;BME280;30388;52.038;-1.478;2023-04-06T04:15:19;65905.94;;;11.65;100.00
44675;BME280;30388;52.038;-1.478;2023-04-06T04:17:46;65822.67;;;10.61;100.00
44675;BME280;30388;52.038;-1.478;2023-04-06T04:20:14;65880.38;;;11.34;100.00
44675;BME280;30388;52.038;-1.478;2023-04-06T04:22:41;65845.44;;;10.62;100.00
44675;BME280;30388;52.038;-1.478;2023-04-06T04:25:09;65876.24;;;11.28;100.00
44675;BME280;30388;52.038;-1.478;2023-04-06T04:27:36;65887.49;;;11.15;100.00
44675;BME280;30388;52.038;-1.478;2023-04-06T04:30:04;65915.99;;;11.51;100.00
44675;BME280;30388;52.038;-1.478;2023-04-06T04:32:32;65961.95;;;11.88;100.00
44675;BME280;30388;52.038;-1.478;2023-04-06T04:34:59;65901.92;;;11.12;100.00
44675;BME280;30388;52.038;-1.478;2023-04-06T04:37:26;65895.67;;;11.26;100.00
44675;BME280;30388;52.038;-1.478;2023-04-06T04:39:53;65917.99;;;11.55;100.00
44675;BME280;30388;52.038;-1.478;2023-04-06T04:42:20;65919.15;;;11.34;100.00
44675;BME280;30388;52.038;-1.478;2023-04-06T04:44:48;65820.07;;;10.57;100.00
44675;BME280;30388;52.038;-1.478;2023-04-06T04:47:15;65848.31;;;10.93;100.00
44675;BME280;30388;52.038;-1.478;2023-04-06T04:49:42;65712.16;;;9.70;100.00
44675;BME280;30388;52.038;-1.478;2023-04-06T04:52:09;65737.13;;;10.02;100.00
44675;BME280;30388;52.038;-1.478;2023-04-06T04:54:36;65787.57;;;10.65;100.00
44675;BME280;30388;52.038;-1.478;2023-04-06T04:57:04;65823.15;;;11.10;100.00
44675;BME280;30388;52.038;-1.478;2023-04-06T04:59:30;65817.10;;;10.76;100.00
44675;BME280;30388;52.038;-1.478;2023-04-06T05:01:58;65883.46;;;11.37;100.00
44675;BME280;30388;52.038;-1.478;2023-04-06T05:04:25;65860.36;;;11.08;100.00
44675;BME280;30388;52.038;-1.478;2023-04-06T05:07:02;65864.92;;;11.14;100.00
44675;BME280;30388;52.038;-1.478;2023-04-06T05:09:29;65886.67;;;11.15;100.00
44675;BME280;30388;52.038;-1.478;2023-04-06T05:11:56;65822.90;;;10.61;100.00
44675;BME280;30388;52.038;-1.478;2023-04-06T05:14:23;65815.64;;;10.52;100.00
44675;BME280;30388;52.038;-1.478;2023-04-06T05:16:55;65885.17;;;11.13;100.00
44675;BME280;30388;52.038;-1.478;2023-04-06T05:19:23;65889.58;;;11.45;100.00
44675;BME280;30388;52.038;-1.478;2023-04-06T05:21:50;65860.03;;;10.81;100.00
44675;BME280;30388;52.038;-1.478;2023-04-06T05:24:17;65922.87;;;11.60;100.00
44675;BME280;30388;52.038;-1.478;2023-04-06T05:26:44;65930.52;;;11.70;100.00
44675;BME280;30388;52.038;-1.478;2023-04-06T05:29:11;65929.36;;;11.47;100.00
44675;BME280;30388;52.038;-1.478;2023-04-06T05:31:38;65881.17;;;11.08;100.00
44675;BME280;30388;52.038;-1.478;2023-04-06T05:34:05;65911.98;;;11.74;100.00
44675;BME280;30388;52.038;-1.478;2023-04-06T05:36:32;65823.42;;;10.84;100.00
44675;BME280;30388;52.038;-1.478;2023-04-06T05:38:59;65742.54;;;9.81;100.00
44675;BME280;30388;52.038;-1.478;2023-04-06T05:41:27;65689.79;;;9.42;100.00
44675;BME280;30388;52.038;-1.478;2023-04-06T05:43:54;65821.84;;;10.59;100.00
44675;BME280;30388;52.038;-1.478;2023-04-06T05:46:21;65838.92;;;10.80;100.00
44675;BME280;30388;52.038;-1.478;2023-04-06T05:48:48;65888.77;;;11.44;100.00
44675;BME280;30388;52.038;-1.478;2023-04-06T05:51:15;65897.12;;;11.06;100.00
44675;BME280;30388;52.038;-1.478;2023-04-06T05:53:42;65942.62;;;11.64;100.00
44675;BME280;30388;52.038;-1.478;2023-04-06T05:56:09;65960.26;;;11.85;100.00
44675;BME280;30388;52.038;-1.478;2023-04-06T05:58:36;65964.74;;;11.91;100.00
44675;BME280;30388;52.038;-1.478;2023-04-06T06:01:04;65959.63;;;11.84;100.00
44675;BME280;30388;52.038;-1.478;2023-04-06T06:03:30;65981.04;;;12.12;100.00
44675;BME280;30388;52.038;-1.478;2023-04-06T06:06:01;65981.40;;;11.64;100.00
44675;BME280;30388;52.038;-1.478;2023-04-06T06:08:28;65976.31;;;12.06;100.00
44675;BME280;30388;52.038;-1.478;2023-04-06T06:10:55;65980.23;;;12.11;100.00
44675;BME280;30388;52.038;-1.478;2023-04-06T06:13:23;65989.49;;;12.23;100.00
44675;BME280;30388;52.038;-1.478;2023-04-06T06:15:50;65971.71;;;12.00;100.00
44675;BME280;30388;52.038;-1.478;2023-04-06T06:18:17;65975.73;;;12.27;100.00
44675;BME280;30388;52.038;-1.478;2023-04-06T06:20:44;65959.83;;;12.07;100.00
44675;BME280;30388;52.038;-1.478;2023-04-06T06:23:11;65918.84;;;11.55;100.00
44675;BME280;30388;52.038;-1.478;2023-04-06T06:25:39;65891.13;;;11.21;100.00
44675;BME280;30388;52.038;-1.478;2023-04-06T06:28:05;65864.67;;;11.13;100.00
44675;BME280;30388;52.038;-1.478;2023-04-06T06:30:33;65825.37;;;10.64;100.00
44675;BME280;30388;52.038;-1.478;2023-04-06T06:33:00;65758.07;;;10.01;100.00
44675;BME280;30388;52.038;-1.478;2023-04-06T06:35:27;65816.46;;;10.75;100.00
44675;BME280;30388;52.038;-1.478;2023-04-06T06:37:54;65798.67;;;10.31;100.00
44675;BME280;30388;52.038;-1.478;2023-04-06T06:40:21;65783.78;;;10.60;100.00
44675;BME280;30388;52.038;-1.478;2023-04-06T06:42:48;65813.20;;;10.98;100.00
44675;BME280;30388;52.038;-1.478;2023-04-06T06:45:15;65809.99;;;10.94;100.00
44675;BME280;30388;52.038;-1.478;2023-04-06T06:47:42;65836.84;;;11.27;100.00
44675;BME280;30388;52.038;-1.478;2023-04-06T06:50:10;65765.00;;;10.37;100.00
44675;BME280;30388;52.038;-1.478;2023-04-06T06:52:36;65772.73;;;10.47;100.00
44675;BME280;30388;52.038;-1.478;2023-04-06T06:55:04;65682.23;;;9.53;100.00
44675;BME280;30388;52.038;-1.478;2023-04-06T06:57:31;65661.31;;;9.27;100.00
44675;BME280;30388;52.038;-1.478;2023-04-06T06:59:59;65692.76;;;9.46;100.00
44675;BME280;30388;52.038;-1.478;2023-04-06T07:02:26;65751.05;;;10.19;100.00
44675;BME280;30388;52.038;-1.478;2023-04-06T07:04:54;65692.65;;;9.68;100.00
44675;BME280;30388;52.038;-1.478;2023-04-06T07:07:21;65787.44;;;10.66;100.00
44675;BME280;30388;52.038;-1.478;2023-04-06T07:09:48;65851.75;;;10.98;100.00
44675;BME280;30388;52.038;-1.478;2023-04-06T07:12:15;65706.21;;;9.85;100.00
44675;BME280;30388;52.038;-1.478;2023-04-06T07:14:42;65700.97;;;9.79;100.00
44675;BME280;30388;52.038;-1.478;2023-04-06T07:17:09;65664.45;;;9.33;100.00
44675;BME280;30388;52.038;-1.478;2023-04-06T07:19:36;65674.59;;;9.67;100.00
44675;BME280;30388;52.038;-1.478;2023-04-06T07:22:04;65682.15;;;9.06;100.00
44675;BME280;30388;52.038;-1.478;2023-04-06T07:24:31;65659.88;;;9.27;100.00
44675;BME280;30388;52.038;-1.478;2023-04-06T07:26:59;65564.95;;;8.28;100.00
44675;BME280;30388;52.038;-1.478;2023-04-06T07:29:26;65490.05;;;7.83;100.00
44675;BME280;30388;52.038;-1.478;2023-04-06T07:31:53;65501.45;;;7.97;100.00
44675;BME280;30388;52.038;-1.478;2023-04-06T07:34:20;65560.29;;;8.71;100.00
44675;BME280;30388;52.038;-1.478;2023-04-06T07:36:47;65487.21;;;7.79;100.00
44675;BME280;30388;52.038;-1.478;2023-04-06T07:39:14;65491.04;;;7.84;100.00
44675;BME280;30388;52.038;-1.478;2023-04-06T07:41:41;65415.10;;;7.36;100.00
44675;BME280;30388;52.038;-1.478;2023-04-06T07:44:08;65345.15;;;6.48;100.00
44675;BME280;30388;52.038;-1.478;2023-04-06T07:46:36;65438.99;;;7.40;100.00
44675;BME280;30388;52.038;-1.478;2023-04-06T07:49:03;65513.28;;;8.12;100.00
44675;BME280;30388;52.038;-1.478;2023-04-06T07:51:30;65473.41;;;7.61;100.00
44675;BME280;30388;52.038;-1.478;2023-04-06T07:53:57;65537.14;;;8.20;100.00
44675;BME280;30388;52.038;-1.478;2023-04-06T07:56:24;65585.08;;;9.03;100.00
44675;BME280;30388;52.038;-1.478;2023-04-06T07:58:51;65603.74;;;8.78;100.00
44675;BME280;30388;52.038;-1.478;2023-04-06T08:01:18;65607.12;;;8.82;100.00
44675;BME280;30388;52.038;-1.478;2023-04-06T08:03:46;65603.00;;;8.77;100.00
44675;BME280;30388;52.038;-1.478;2023-04-06T08:06:13;65663.98;;;9.33;100.00
44675;BME280;30388;52.038;-1.478;2023-04-06T08:08:40;65644.85;;;9.08;100.00
44675;BME280;30388;52.038;-1.478;2023-04-06T08:11:08;65647.42;;;9.33;100.00
44675;BME280;30388;52.038;-1.478;2023-04-06T08:13:35;65703.96;;;10.05;100.00
44675;BME280;30388;52.038;-1.478;2023-04-06T08:16:02;65588.88;;;8.85;100.00
44675;BME280;30388;52.038;-1.478;2023-04-06T08:18:29;65597.86;;;8.70;100.00
44675;BME280;30388;52.038;-1.478;2023-04-06T08:20:56;65638.46;;;9.22;100.00
44675;BME280;30388;52.038;-1.478;2023-04-06T08:23:23;65581.80;;;8.51;100.00
44675;BME280;30388;52.038;-1.478;2023-04-06T08:25:51;65534.14;;;8.39;100.00
44675;BME280;30388;52.038;-1.478;2023-04-06T08:28:18;65626.42;;;9.06;100.00
44675;BME280;30388;52.038;-1.478;2023-04-06T08:30:46;65653.07;;;9.18;100.00
44675;BME280;30388;52.038;-1.478;2023-04-06T08:33:14;65597.05;;;8.69;100.00
44675;BME280;30388;52.038;-1.478;2023-04-06T08:35:41;65581.08;;;8.76;100.00
44675;BME280;30388;52.038;-1.478;2023-04-06T08:38:08;65606.15;;;8.81;100.00
44675;BME280;30388;52.038;-1.478;2023-04-06T08:40:37;65578.27;;;8.47;100.00
44675;BME280;30388;52.038;-1.478;2023-04-06T08:43:08;65550.93;;;8.39;100.00
44675;BME280;30388;52.038;-1.478;2023-04-06T08:45:36;65649.38;;;9.36;100.00
44675;BME280;30388;52.038;-1.478;2023-04-06T08:48:03;65706.63;;;9.64;100.00
44675;BME280;30388;52.038;-1.478;2023-04-06T08:50:35;65756.33;;;10.26;100.00
44675;BME280;30388;52.038;-1.478;2023-04-06T08:53:02;65708.57;;;9.66;100.00
44675;BME280;30388;52.038;-1.478;2023-04-06T08:55:30;65629.15;;;9.10;100.00
44675;BME280;30388;52.038;-1.478;2023-04-06T08:57:58;65655.91;;;9.45;100.00
44675;BME280;30388;52.038;-1.478;2023-04-06T09:00:26;65622.35;;;9.02;100.00
44675;BME280;30388;52.038;-1.478;2023-04-06T09:02:55;65667.95;;;9.59;100.00
44675;BME280;30388;52.038;-1.478;2023-04-06T09:05:24;65710.02;;;9.90;100.00
44675;BME280;30388;52.038;-1.478;2023-04-06T09:07:52;65665.69;;;9.35;100.00
44675;BME280;30388;52.038;-1.478;2023-04-06T09:10:20;65654.51;;;9.20;100.00
44675;BME280;30388;52.038;-1.478;2023-04-06T09:12:47;65634.57;;;8.72;100.00
44675;BME280;30388;52.038;-1.478;2023-04-06T09:15:19;65635.76;;;9.18;100.00
44675;BME280;30388;52.038;-1.478;2023-04-06T09:17:46;65684.76;;;9.36;100.00
44675;BME280;30388;52.038;-1.478;2023-04-06T09:20:22;65673.15;;;9.44;100.00
44675;BME280;30388;52.038;-1.478;2023-04-06T09:22:50;65662.96;;;9.52;100.00
44675;BME280;30388;52.038;-1.478;2023-04-06T09:25:19;65688.64;;;9.63;100.00
44675;BME280;30388;52.038;-1.478;2023-04-06T09:27:47;65700.42;;;10.00;100.00
44675;BME280;30388;52.038;-1.478;2023-04-06T09:30:15;65591.47;;;8.89;100.00
44675;BME280;30388;52.038;-1.478;2023-04-06T09:32:47;65608.77;;;8.81;100.00
44675;BME280;30388;52.038;-1.478;2023-04-06T09:35:17;65666.25;;;9.35;100.00
44675;BME280;30388;52.038;-1.478;2023-04-06T09:37:44;65779.60;;;10.78;100.00
44675;BME280;30388;52.038;-1.478;2023-04-06T09:40:12;65724.59;;;9.86;100.00
44675;BME280;30388;52.038;-1.478;2023-04-06T09:42:41;65817.43;;;11.04;100.00
44675;BME280;30388;52.038;-1.478;2023-04-06T09:45:09;65763.14;;;10.35;100.00
44675;BME280;30388;52.038;-1.478;2023-04-06T09:47:37;65767.89;;;10.40;100.00
44675;BME280;30388;52.038;-1.478;2023-04-06T09:50:08;65737.51;;;10.02;100.00
44675;BME280;30388;52.038;-1.478;2023-04-06T09:52:41;65818.68;;;10.78;100.00
44675;BME280;30388;52.038;-1.478;2023-04-06T09:55:09;65847.48;;;11.15;100.00
44675;BME280;30388;52.038;-1.478;2023-04-06T09:57:44;65831.81;;;10.95;100.00
44675;BME280;30388;52.038;-1.478;2023-04-06T10:00:14;65886.49;;;11.41;100.00
44675;BME280;30388;52.038;-1.478;2023-04-06T10:02:50;65957.48;;;12.05;100.00
44675;BME280;30388;52.038;-1.478;2023-04-06T10:05:29;65912.73;;;11.74;100.00
44675;BME280;30388;52.038;-1.478;2023-04-06T10:08:05;65924.81;;;11.90;100.00
44675;BME280;30388;52.038;-1.478;2023-04-06T10:10:33;65792.67;;;10.23;100.00
44675;BME280;30388;52.038;-1.478;2023-04-06T10:13:00;65878.78;;;11.33;100.00
44675;BME280;30388;52.038;-1.478;2023-04-06T10:15:28;65969.34;;;11.97;100.00
44675;BME280;30388;52.038;-1.478;2023-04-06T10:17:56;66057.56;;;13.09;100.00
44675;BME280;30388;52.038;-1.478;2023-04-06T10:20:26;65975.15;;;12.27;100.00
44675;BME280;30388;52.038;-1.478;2023-04-06T10:22:58;65901.56;;;11.34;100.00
44675;BME280;30388;52.038;-1.478;2023-04-06T10:25:27;65958.75;;;12.06;100.00
44675;BME280;30388;52.038;-1.478;2023-04-06T10:27:59;65910.83;;;11.24;100.00
44675;BME280;30388;52.038;-1.478;2023-04-06T10:30:28;65843.18;;;10.87;100.00
44675;BME280;30388;52.038;-1.478;2023-04-06T10:32:55;65894.84;;;11.26;100.00
44675;BME280;30388;52.038;-1.478;2023-04-06T10:35:22;65946.67;;;11.91;100.00
44675;BME280;30388;52.038;-1.478;2023-04-06T10:37:51;65862.93;;;10.85;100.00
44675;BME280;30388;52.038;-1.478;2023-04-06T10:40:21;65817.55;;;10.54;100.00
44675;BME280;30388;52.038;-1.478;2023-04-06T10:42:49;65747.89;;;10.15;100.00
44675;BME280;30388;52.038;-1.478;2023-04-06T10:45:22;65728.23;;;9.90;100.00
44675;BME280;30388;52.038;-1.478;2023-04-06T10:47:50;65672.20;;;9.64;100.00
44675;BME280;30388;52.038;-1.478;2023-04-06T10:50:19;65654.88;;;9.41;100.00
44675;BME280;30388;52.038;-1.478;2023-04-06T10:52:47;65723.31;;;9.85;100.00
44675;BME280;30388;52.038;-1.478;2023-04-06T10:55:15;65689.95;;;9.42;100.00
44675;BME280;30388;52.038;-1.478;2023-04-06T10:57:43;65717.75;;;9.77;100.00
44675;BME280;30388;52.038;-1.478;2023-04-06T11:00:14;65735.20;;;10.00;100.00
44675;BME280;30388;52.038;-1.478;2023-04-06T11:02:41;65752.60;;;10.22;100.00
44675;BME280;30388;52.038;-1.478;2023-04-06T11:05:12;65701.21;;;9.56;100.00
44675;BME280;30388;52.038;-1.478;2023-04-06T11:07:40;65754.95;;;10.24;100.00
44675;BME280;30388;52.038;-1.478;2023-04-06T11:10:09;65773.31;;;9.99;100.00
44675;BME280;30388;52.038;-1.478;2023-04-06T11:12:36;65833.12;;;11.24;100.00
44675;BME280;30388;52.038;-1.478;2023-04-06T11:15:04;65785.10;;;10.63;100.00
44675;BME280;30388;52.038;-1.478;2023-04-06T11:17:32;65754.62;;;9.98;100.00
44675;BME280;30388;52.038;-1.478;2023-04-06T11:19:59;65712.36;;;9.70;100.00
44675;BME280;30388;52.038;-1.478;2023-04-06T11:22:26;65693.39;;;9.47;100.00
44675;BME280;30388;52.038;-1.478;2023-04-06T11:25:05;65755.60;;;9.98;100.00
44675;BME280;30388;52.038;-1.478;2023-04-06T11:27:33;65642.49;;;9.04;100.00
44675;BME280;30388;52.038;-1.478;2023-04-06T11:30:01;65714.35;;;9.74;100.00
44675;BME280;30388;52.038;-1.478;2023-04-06T11:32:39;65653.82;;;9.18;100.00
44675;BME280;30388;52.038;-1.478;2023-04-06T11:35:07;65687.03;;;9.39;100.00
44675;BME280;30388;52.038;-1.478;2023-04-06T11:37:34;65923.39;;;11.88;100.00
44675;BME280;30388;52.038;-1.478;2023-04-06T11:40:02;65908.95;;;11.70;100.00
44675;BME280;30388;52.038;-1.478;2023-04-06T11:42:29;65998.21;;;12.56;100.00
44675;BME280;30388;52.038;-1.478;2023-04-06T11:44:58;65956.03;;;12.30;100.00
44675;BME280;30388;52.038;-1.478;2023-04-06T11:47:28;65953.88;;;12.01;100.00
44675;BME280;30388;52.038;-1.478;2023-04-06T11:49:56;65828.36;;;10.68;100.00
44675;BME280;30388;52.038;-1.478;2023-04-06T11:52:32;65897.73;;;11.56;100.00
44675;BME280;30388;52.038;-1.478;2023-04-06T11:55:10;65790.02;;;9.93;100.00
44675;BME280;30388;52.038;-1.478;2023-04-06T11:57:38;65897.31;;;11.29;100.00
44675;BME280;30388;52.038;-1.478;2023-04-06T12:00:06;65998.46;;;12.34;100.00
44675;BME280;30388;52.038;-1.478;2023-04-06T12:02:34;65980.50;;;12.34;100.00
44675;BME280;30388;52.038;-1.478;2023-04-06T12:05:01;66098.84;;;13.61;100.00
44675;BME280;30388;52.038;-1.478;2023-04-06T12:07:28;66133.25;;;13.55;100.00
44675;BME280;30388;52.038;-1.478;2023-04-06T12:09:56;66178.83;;;14.13;100.00
44675;BME280;30388;52.038;-1.478;2023-04-06T12:12:23;66124.14;;;13.43;100.00
44675;BME280;30388;52.038;-1.478;2023-04-06T12:14:51;65963.78;;;12.12;100.00
44675;BME280;30388;52.038;-1.478;2023-04-06T12:17:18;65810.23;;;10.94;100.00
44675;BME280;30388;52.038;-1.478;2023-04-06T12:19:46;65707.06;;;9.63;100.00
44675;BME280;30388;52.038;-1.478;2023-04-06T12:22:13;65554.12;;;8.15;100.00
44675;BME280;30388;52.038;-1.478;2023-04-06T12:24:40;65545.08;;;8.02;100.00
44675;BME280;30388;52.038;-1.478;2023-04-06T12:27:07;65577.17;;;7.99;100.00
44675;BME280;30388;52.038;-1.478;2023-04-06T12:29:35;65661.77;;;9.07;100.00
44675;BME280;30388;52.038;-1.478;2023-04-06T12:32:02;65695.03;;;9.48;100.00
44675;BME280;30388;52.038;-1.478;2023-04-06T12:34:29;65592.12;;;8.40;100.00
44675;BME280;30388;52.038;-1.478;2023-04-06T12:36:56;65738.68;;;10.04;100.00
44675;BME280;30388;52.038;-1.478;2023-04-06T12:39:23;65652.81;;;8.68;100.00
44675;BME280;30388;52.038;-1.478;2023-04-06T12:41:50;65694.31;;;9.48;100.00
44675;BME280;30388;52.038;-1.478;2023-04-06T12:44:17;65711.06;;;9.42;100.00
44675;BME280;30388;52.038;-1.478;2023-04-06T12:46:44;65780.84;;;10.31;100.00